createdAt,value
2023-01-21T00:01:06.393Z,62.66
2023-01-21T00:03:08.569Z,62.52
2023-01-21T00:05:10.164Z,62.62
2023-01-21T00:07:11.751Z,62.56
2023-01-21T00:09:15.319Z,62.09
2023-01-21T00:11:16.842Z,62.03
2023-01-21T00:13:18.459Z,62.09
2023-01-21T00:15:20.250Z,62.20
2023-01-21T00:17:21.846Z,62.18
2023-01-21T00:19:23.510Z,62.02
2023-01-21T00:21:25.092Z,62.61
2023-01-21T00:23:26.971Z,62.44
2023-01-21T00:25:30.207Z,62.29
2023-01-21T00:27:31.771Z,62.74
2023-01-21T00:29:33.349Z,62.14
2023-01-21T00:31:35.023Z,62.20
2023-01-21T00:33:36.831Z,62.18
2023-01-21T00:35:38.401Z,62.45
2023-01-21T00:37:40.141Z,62.59
2023-01-21T00:39:41.724Z,62.60
2023-01-21T00:41:44.649Z,62.58
2023-01-21T00:43:46.210Z,62.58
2023-01-21T00:45:47.881Z,62.14
2023-01-21T00:47:49.457Z,62.43
2023-01-21T00:49:51.000Z,62.69
2023-01-21T00:51:52.596Z,62.34
2023-01-21T00:53:54.348Z,62.52
2023-01-21T00:55:59.047Z,62.87
2023-01-21T00:58:02.231Z,62.36
2023-01-21T01:00:04.996Z,62.43
2023-01-21T01:02:06.606Z,62.53
2023-01-21T01:04:08.735Z,63.30
2023-01-21T01:06:12.562Z,62.68
2023-01-21T01:08:14.126Z,62.80
2023-01-21T01:10:16.871Z,62.72
2023-01-21T01:12:18.515Z,62.96
2023-01-21T01:14:21.535Z,63.27
2023-01-21T01:16:23.946Z,63.01
2023-01-21T01:18:26.938Z,62.58
2023-01-21T01:20:28.499Z,62.41
2023-01-21T01:22:30.106Z,62.53
2023-01-21T01:24:31.704Z,62.53
2023-01-21T01:26:33.844Z,62.80
2023-01-21T01:28:35.892Z,62.34
2023-01-21T01:30:38.798Z,62.17
2023-01-21T01:32:40.379Z,61.97
2023-01-21T01:34:41.990Z,61.46
2023-01-21T01:36:43.549Z,62.37
2023-01-21T01:38:45.567Z,63.19
2023-01-21T01:40:47.306Z,63.50
2023-01-21T01:42:48.871Z,64.16
2023-01-21T01:44:58.814Z,63.81
2023-01-21T01:47:03.757Z,63.43
2023-01-21T01:49:11.672Z,62.87
2023-01-21T01:51:14.367Z,62.91
2023-01-21T01:53:18.641Z,63.50
2023-01-21T01:55:20.630Z,63.48
2023-01-21T01:57:25.367Z,63.36
2023-01-21T01:59:27.863Z,62.84
2023-01-21T02:01:29.508Z,63.40
2023-01-21T02:03:37.995Z,63.35
2023-01-21T02:05:41.786Z,62.82
2023-01-21T02:07:45.473Z,63.60
2023-01-21T02:09:47.227Z,62.91
2023-01-21T02:11:49.187Z,62.23
2023-01-21T02:13:53.875Z,62.29
2023-01-21T02:16:09.927Z,62.58
2023-01-21T02:18:24.574Z,62.30
2023-01-21T02:21:09.101Z,62.34
2023-01-21T02:23:16.954Z,62.74
2023-01-21T02:25:51.893Z,63.32
2023-01-21T02:28:26.581Z,63.75
2023-01-21T02:30:53.143Z,64.43
2023-01-21T02:33:33.249Z,64.49
2023-01-21T02:35:42.835Z,64.82
2023-01-21T02:37:51.875Z,64.63
2023-01-21T02:40:10.333Z,65.04
2023-01-21T02:42:22.214Z,64.65
2023-01-21T02:44:31.068Z,64.88
2023-01-21T02:46:39.987Z,63.86
2023-01-21T02:48:50.209Z,63.48
2023-01-21T02:50:53.646Z,62.36
2023-01-21T02:52:56.556Z,61.79
2023-01-21T02:54:59.903Z,62.07
2023-01-21T02:57:01.897Z,62.21
2023-01-21T02:59:05.532Z,60.23
2023-01-21T03:01:17.497Z,59.81
2023-01-21T03:03:45.547Z,59.05
2023-01-21T03:06:31.175Z,59.00
2023-01-21T03:08:40.952Z,59.60
2023-01-21T03:10:46.930Z,58.94
2023-01-21T03:12:55.952Z,59.57
2023-01-21T03:15:02.091Z,58.95
2023-01-21T03:17:09.238Z,59.63
2023-01-21T03:19:14.088Z,59.12
2023-01-21T03:21:23.783Z,58.84
2023-01-21T03:23:29.862Z,59.09
2023-01-21T03:25:34.039Z,59.77
2023-01-21T03:27:41.232Z,59.27
2023-01-21T03:29:46.532Z,59.79
2023-01-21T03:31:53.613Z,59.39
2023-01-21T03:33:58.266Z,59.54
2023-01-21T03:36:04.635Z,60.14
2023-01-21T03:38:13.940Z,59.79
2023-01-21T03:40:21.653Z,59.48
2023-01-21T03:42:23.645Z,59.32
2023-01-21T03:44:26.070Z,59.21
2023-01-21T03:46:36.509Z,59.25
2023-01-21T03:48:43.906Z,56.85
2023-01-21T03:50:53.086Z,55.57
2023-01-21T03:52:55.007Z,55.34
2023-01-21T03:54:58.911Z,56.21
2023-01-21T03:57:00.482Z,56.15
2023-01-21T03:59:02.027Z,56.40
2023-01-21T04:01:03.650Z,56.28
2023-01-21T04:03:05.271Z,56.16
2023-01-21T04:05:07.432Z,56.59
2023-01-21T04:07:09.464Z,56.95
2023-01-21T04:09:11.408Z,56.74
2023-01-21T04:11:14.427Z,56.69
2023-01-21T04:13:15.971Z,57.07
2023-01-21T04:15:17.654Z,56.75
2023-01-21T04:17:19.197Z,57.09
2023-01-21T04:19:20.919Z,56.47
2023-01-21T04:21:22.491Z,56.78
2023-01-21T04:23:24.283Z,56.48
2023-01-21T04:25:25.896Z,56.41
2023-01-21T04:27:28.862Z,56.24
2023-01-21T04:29:30.451Z,55.82
2023-01-21T04:31:32.020Z,55.75
2023-01-21T04:33:33.796Z,55.41
2023-01-21T04:35:35.626Z,55.10
2023-01-21T04:37:37.425Z,55.04
2023-01-21T04:39:39.004Z,54.99
2023-01-21T04:41:40.592Z,55.63
2023-01-21T04:43:43.549Z,56.27
2023-01-21T04:45:45.278Z,56.42
2023-01-21T04:47:46.912Z,57.04
2023-01-21T04:49:48.507Z,57.82
2023-01-21T04:51:50.073Z,57.96
2023-01-21T04:53:51.699Z,58.75
2023-01-21T04:55:53.960Z,58.17
2023-01-21T04:57:55.507Z,57.96
2023-01-21T04:59:58.486Z,59.15
2023-01-21T05:02:00.207Z,58.53
2023-01-21T05:04:01.815Z,58.43
2023-01-21T05:06:03.471Z,58.88
2023-01-21T05:08:05.375Z,58.84
2023-01-21T05:10:07.469Z,58.71
2023-01-21T05:12:09.933Z,58.50
2023-01-21T05:14:11.522Z,59.29
2023-01-21T05:16:14.496Z,59.27
2023-01-21T05:18:16.165Z,59.47
2023-01-21T05:20:18.211Z,60.24
2023-01-21T05:22:19.901Z,60.11
2023-01-21T05:24:21.441Z,60.40
2023-01-21T05:26:23.039Z,61.00
2023-01-21T05:28:24.996Z,61.27
2023-01-21T05:30:26.488Z,61.57
2023-01-21T05:32:29.349Z,61.92
2023-01-21T05:34:30.901Z,61.50
2023-01-21T05:36:32.437Z,61.24
2023-01-21T05:38:34.002Z,61.43
2023-01-21T05:40:35.558Z,60.64
2023-01-21T05:42:37.115Z,60.67
2023-01-21T05:44:38.694Z,60.32
2023-01-21T05:46:40.194Z,60.07
2023-01-21T05:48:43.076Z,60.97
2023-01-21T05:50:44.889Z,59.57
2023-01-21T05:52:46.445Z,60.20
2023-01-21T05:55:02.256Z,60.79
2023-01-21T05:57:04.226Z,61.52
2023-01-21T05:59:05.725Z,61.04
2023-01-21T06:01:07.314Z,60.84
2023-01-21T06:03:09.333Z,60.77
2023-01-21T06:05:12.182Z,60.63
2023-01-21T06:07:13.741Z,60.92
2023-01-21T06:09:15.372Z,60.19
2023-01-21T06:11:19.212Z,60.13
2023-01-21T06:13:20.720Z,60.39
2023-01-21T06:15:22.291Z,59.76
2023-01-21T06:17:23.794Z,60.58
2023-01-21T06:19:25.351Z,59.19
2023-01-21T06:21:28.269Z,59.63
2023-01-21T06:23:29.791Z,59.88
2023-01-21T06:25:32.180Z,60.21
2023-01-21T06:27:33.879Z,60.39
2023-01-21T06:29:35.518Z,60.39
2023-01-21T06:31:37.224Z,60.42
2023-01-21T06:33:38.958Z,60.13
2023-01-21T06:35:40.507Z,59.93
2023-01-21T06:37:44.210Z,58.83
2023-01-21T06:39:45.865Z,59.00
2023-01-21T06:41:47.403Z,57.79
2023-01-21T06:43:48.969Z,58.14
2023-01-21T06:45:50.556Z,58.20
2023-01-21T06:47:52.124Z,57.15
2023-01-21T06:49:53.776Z,56.59
2023-01-21T06:51:55.385Z,55.75
2023-01-21T06:53:58.344Z,55.96
2023-01-21T06:55:59.883Z,55.82
2023-01-21T06:58:01.438Z,55.10
2023-01-21T07:00:03.699Z,54.47
2023-01-21T07:02:05.367Z,54.29
2023-01-21T07:04:07.013Z,54.46
2023-01-21T07:06:08.553Z,54.14
2023-01-21T07:08:10.061Z,53.48
2023-01-21T07:10:13.129Z,53.61
2023-01-21T07:12:14.904Z,54.51
2023-01-21T07:14:16.427Z,54.36
2023-01-21T07:16:18.110Z,54.68
2023-01-21T07:18:19.669Z,54.84
2023-01-21T07:20:23.629Z,54.77
2023-01-21T07:22:25.311Z,55.70
2023-01-21T07:24:26.847Z,55.84
2023-01-21T07:26:29.759Z,55.23
2023-01-21T07:28:31.774Z,55.42
2023-01-21T07:30:33.307Z,55.93
2023-01-21T07:32:34.865Z,55.92
2023-01-21T07:34:36.411Z,56.02
2023-01-21T07:36:37.940Z,56.74
2023-01-21T07:38:39.611Z,56.28
2023-01-21T07:40:43.464Z,56.70
2023-01-21T07:42:50.797Z,56.81
2023-01-21T07:44:52.438Z,57.47
2023-01-21T07:46:54.012Z,57.14
2023-01-21T07:48:55.632Z,57.60
2023-01-21T07:50:57.355Z,56.69
2023-01-21T07:52:59.093Z,56.79
2023-01-21T07:55:00.650Z,56.64
2023-01-21T07:57:02.246Z,55.72
2023-01-21T07:59:05.221Z,55.61
2023-01-21T08:01:08.620Z,55.27
2023-01-21T08:03:10.595Z,55.25
2023-01-21T08:05:12.447Z,54.49
2023-01-21T08:07:14.334Z,54.21
2023-01-21T08:09:16.095Z,54.42
2023-01-21T08:11:17.988Z,55.03
2023-01-21T08:13:19.887Z,54.72
2023-01-21T08:15:22.835Z,54.77
2023-01-21T08:17:24.530Z,55.04
2023-01-21T08:19:26.373Z,54.74
2023-01-21T08:21:27.888Z,54.23
2023-01-21T08:23:29.477Z,54.45
2023-01-21T08:25:31.072Z,53.95
2023-01-21T08:27:33.153Z,54.01
2023-01-21T08:29:34.786Z,53.85
2023-01-21T08:31:37.733Z,53.75
2023-01-21T08:33:39.734Z,53.85
2023-01-21T08:35:41.422Z,53.77
2023-01-21T08:37:43.270Z,53.46
2023-01-21T08:39:44.921Z,53.51
2023-01-21T08:41:46.537Z,53.42
2023-01-21T08:43:48.115Z,53.55
2023-01-21T08:45:50.063Z,53.45
2023-01-21T08:47:53.382Z,53.44
2023-01-21T08:49:55.183Z,53.16
2023-01-21T08:51:58.865Z,52.94
2023-01-21T08:54:00.786Z,53.65
2023-01-21T08:56:04.041Z,52.59
2023-01-21T08:58:05.623Z,52.72
2023-01-21T09:00:08.576Z,52.42
2023-01-21T09:02:11.364Z,52.46
2023-01-21T09:04:14.328Z,52.24
2023-01-21T09:06:15.935Z,52.23
2023-01-21T09:08:17.839Z,52.02
2023-01-21T09:10:19.512Z,51.89
2023-01-21T09:12:21.089Z,52.21
2023-01-21T09:14:22.698Z,51.93
2023-01-21T09:16:24.388Z,52.87
2023-01-21T09:18:26.246Z,53.50
2023-01-21T09:20:29.200Z,53.26
2023-01-21T09:22:30.753Z,53.58
2023-01-21T09:24:32.470Z,53.17
2023-01-21T09:26:34.170Z,53.54
2023-01-21T09:28:38.035Z,53.16
2023-01-21T09:30:39.611Z,53.04
2023-01-21T09:32:41.293Z,52.79
2023-01-21T09:34:42.846Z,52.80
2023-01-21T09:36:46.019Z,52.74
2023-01-21T09:38:48.728Z,52.77
2023-01-21T09:40:50.352Z,52.71
2023-01-21T09:42:51.915Z,52.43
2023-01-21T09:44:56.667Z,52.73
2023-01-21T09:47:02.825Z,53.15
2023-01-21T09:49:09.927Z,53.07
2023-01-21T09:51:19.706Z,53.39
2023-01-21T09:53:32.193Z,53.80
2023-01-21T09:55:40.947Z,53.24
2023-01-21T09:58:05.425Z,53.15
2023-01-21T10:00:31.500Z,52.32
2023-01-21T10:02:42.037Z,52.51
2023-01-21T10:04:49.813Z,52.88
2023-01-21T10:06:56.941Z,52.74
2023-01-21T10:09:21.376Z,52.81
2023-01-21T10:11:36.967Z,52.88
2023-01-21T10:13:48.577Z,53.03
2023-01-21T10:16:02.364Z,53.63
2023-01-21T10:18:08.124Z,53.05
2023-01-21T10:20:16.984Z,52.60
2023-01-21T10:22:23.628Z,52.81
2023-01-21T10:24:34.981Z,52.56
2023-01-21T10:26:36.611Z,52.82
2023-01-21T10:28:41.566Z,53.10
2023-01-21T10:30:48.008Z,53.37
2023-01-21T10:32:52.049Z,53.08
2023-01-21T10:34:55.030Z,52.64
2023-01-21T10:37:03.909Z,52.30
2023-01-21T10:39:14.832Z,52.40
2023-01-21T10:41:47.435Z,52.30
2023-01-21T10:43:56.054Z,52.74
2023-01-21T10:46:07.693Z,52.55
2023-01-21T10:48:15.599Z,52.54
2023-01-21T10:50:27.095Z,52.57
2023-01-21T10:52:37.142Z,52.53
2023-01-21T10:54:47.725Z,52.34
2023-01-21T10:56:57.259Z,52.42
2023-01-21T10:59:02.947Z,52.62
2023-01-21T11:01:07.766Z,52.80
2023-01-21T11:03:23.694Z,52.28
2023-01-21T11:05:26.179Z,52.82
2023-01-21T11:07:34.399Z,52.42
2023-01-21T11:09:39.816Z,52.58
2023-01-21T11:11:41.733Z,52.77
2023-01-21T11:13:44.735Z,52.53
2023-01-21T11:15:51.850Z,52.31
2023-01-21T11:17:53.901Z,52.45
2023-01-21T11:19:58.787Z,52.36
2023-01-21T11:22:02.355Z,52.52
2023-01-21T11:24:20.243Z,52.42
2023-01-21T11:26:26.908Z,52.41
2023-01-21T11:28:29.172Z,53.19
2023-01-21T11:30:51.897Z,52.95
2023-01-21T11:32:53.700Z,52.48
2023-01-21T11:35:01.754Z,53.26
2023-01-21T11:37:06.329Z,52.92
2023-01-21T11:39:14.171Z,53.12
2023-01-21T11:41:20.193Z,52.58
2023-01-21T11:43:33.689Z,52.93
2023-01-21T11:45:37.247Z,52.86
2023-01-21T11:47:47.390Z,52.81
2023-01-21T11:49:49.076Z,52.83
2023-01-21T11:52:05.460Z,52.54
2023-01-21T11:54:10.826Z,52.86
2023-01-21T11:56:15.168Z,53.27
2023-01-21T11:58:19.087Z,53.44
2023-01-21T12:00:23.765Z,53.48
2023-01-21T12:02:30.222Z,53.34
2023-01-21T12:04:32.852Z,53.63
2023-01-21T12:06:36.916Z,53.76
2023-01-21T12:08:40.437Z,53.45
2023-01-21T12:10:44.814Z,53.38
2023-01-21T12:13:01.003Z,53.55
2023-01-21T12:15:15.480Z,53.92
2023-01-21T12:17:30.180Z,54.57
2023-01-21T12:19:50.059Z,55.13
2023-01-21T12:22:07.702Z,54.46
2023-01-21T12:24:24.035Z,55.28
2023-01-21T12:26:36.973Z,54.86
2023-01-21T12:29:03.519Z,54.70
2023-01-21T12:31:14.940Z,53.75
2023-01-21T12:33:20.942Z,54.14
2023-01-21T12:35:29.367Z,54.31
2023-01-21T12:37:35.869Z,54.81
2023-01-21T12:39:37.816Z,54.27
2023-01-21T12:41:42.270Z,54.06
2023-01-21T12:43:46.687Z,53.82
2023-01-21T12:45:53.529Z,53.97
2023-01-21T12:47:59.272Z,53.40
2023-01-21T12:50:21.217Z,53.35
2023-01-21T12:52:31.300Z,52.88
2023-01-21T12:54:40.528Z,53.39
2023-01-21T12:56:47.920Z,53.63
2023-01-21T12:58:54.304Z,53.27
2023-01-21T13:01:01.076Z,53.35
2023-01-21T13:03:16.164Z,52.59
2023-01-21T13:05:24.239Z,52.59
2023-01-21T13:07:35.194Z,52.19
2023-01-21T13:09:44.051Z,51.94
2023-01-21T13:11:51.231Z,52.06
2023-01-21T13:14:15.291Z,52.42
2023-01-21T13:16:17.722Z,53.29
2023-01-21T13:18:25.470Z,53.84
2023-01-21T13:20:29.020Z,54.61
2023-01-21T13:22:42.550Z,52.18
2023-01-21T13:25:00.960Z,52.52
2023-01-21T13:27:15.095Z,52.59
2023-01-21T13:29:26.035Z,52.65
2023-01-21T13:31:33.644Z,52.82
2023-01-21T13:33:49.884Z,53.31
2023-01-21T13:36:02.363Z,53.23
2023-01-21T13:38:14.035Z,52.78
2023-01-21T13:40:28.383Z,52.66
2023-01-21T13:42:38.957Z,52.44
2023-01-21T13:45:19.058Z,52.19
2023-01-21T13:47:31.840Z,52.62
2023-01-21T13:50:03.484Z,52.78
2023-01-21T13:52:12.630Z,52.69
2023-01-21T13:54:47.392Z,52.77
2023-01-21T13:57:04.206Z,53.09
2023-01-21T13:59:12.260Z,53.11
2023-01-21T14:01:19.956Z,53.26
2023-01-21T14:03:30.007Z,52.97
2023-01-21T14:05:37.652Z,53.29
2023-01-21T14:07:43.883Z,53.35
2023-01-21T14:09:52.128Z,53.55
2023-01-21T14:11:59.460Z,53.22
2023-01-21T14:14:34.966Z,52.81
2023-01-21T14:17:07.114Z,52.94
2023-01-21T14:19:29.677Z,53.34
2023-01-21T14:22:02.874Z,53.25
2023-01-21T14:24:16.105Z,53.48
2023-01-21T14:26:33.317Z,53.12
2023-01-21T14:28:42.355Z,53.83
2023-01-21T14:30:47.913Z,52.88
2023-01-21T14:32:54.170Z,52.68
2023-01-21T14:35:09.832Z,52.79
2023-01-21T14:37:15.707Z,52.96
2023-01-21T14:39:31.605Z,52.96
2023-01-21T14:42:00.590Z,52.99
2023-01-21T14:44:02.159Z,53.20
2023-01-21T14:46:23.694Z,53.50
2023-01-21T14:48:30.369Z,53.18
2023-01-21T14:50:52.783Z,53.39
2023-01-21T14:52:54.473Z,53.28
2023-01-21T14:54:56.385Z,53.40
2023-01-21T14:57:13.661Z,53.23
2023-01-21T14:59:34.282Z,53.53
2023-01-21T15:01:42.469Z,53.47
2023-01-21T15:03:49.837Z,53.17
2023-01-21T15:05:53.818Z,53.32
2023-01-21T15:08:06.191Z,53.27
2023-01-21T15:10:14.520Z,53.28
2023-01-21T15:12:22.522Z,52.73
2023-01-21T15:14:27.867Z,52.34
2023-01-21T15:16:38.118Z,52.61
2023-01-21T15:18:41.761Z,52.60
2023-01-21T15:20:46.192Z,52.22
2023-01-21T15:23:03.736Z,52.00
2023-01-21T15:25:29.970Z,51.92
2023-01-21T15:27:32.945Z,52.13
2023-01-21T15:29:36.421Z,52.37
2023-01-21T15:31:43.876Z,51.89
2023-01-21T15:33:47.853Z,52.19
2023-01-21T15:35:50.051Z,52.22
2023-01-21T15:37:53.632Z,52.71
2023-01-21T15:39:59.739Z,52.84
2023-01-21T15:42:14.264Z,52.80
2023-01-21T15:44:36.547Z,53.19
2023-01-21T15:46:48.363Z,53.23
2023-01-21T15:49:02.713Z,53.26
2023-01-21T15:51:13.419Z,53.56
2023-01-21T15:53:45.252Z,53.77
2023-01-21T15:56:05.035Z,53.72
2023-01-21T15:58:17.932Z,54.10
2023-01-21T16:00:31.529Z,54.47
2023-01-21T16:02:43.948Z,54.37
2023-01-21T16:04:58.489Z,54.82
2023-01-21T16:07:22.359Z,54.85
2023-01-21T16:09:32.900Z,55.10
2023-01-21T16:11:52.111Z,54.99
2023-01-21T16:13:57.520Z,54.98
2023-01-21T16:16:11.269Z,55.26
2023-01-21T16:18:23.072Z,55.33
2023-01-21T16:20:25.051Z,55.29
2023-01-21T16:22:30.759Z,55.53
2023-01-21T16:24:34.286Z,55.66
2023-01-21T16:26:35.972Z,55.45
2023-01-21T16:28:42.129Z,55.67
2023-01-21T16:30:53.559Z,55.71
2023-01-21T16:33:10.784Z,54.89
2023-01-21T16:35:12.773Z,55.30
2023-01-21T16:37:17.034Z,55.27
2023-01-21T16:39:19.720Z,55.55
2023-01-21T16:41:23.707Z,55.63
2023-01-21T16:43:26.711Z,55.49
2023-01-21T16:45:28.592Z,55.20
2023-01-21T16:47:33.658Z,55.34
2023-01-21T16:49:36.676Z,54.85
2023-01-21T16:51:41.821Z,54.99
2023-01-21T16:53:44.258Z,55.34
2023-01-21T16:55:47.584Z,55.18
2023-01-21T16:57:50.218Z,55.59
2023-01-21T16:59:52.080Z,55.65
2023-01-21T17:01:55.251Z,55.74
2023-01-21T17:03:58.384Z,55.58
2023-01-21T17:06:12.240Z,55.25
2023-01-21T17:08:15.724Z,55.55
2023-01-21T17:10:20.525Z,55.45
2023-01-21T17:12:24.263Z,55.49
2023-01-21T17:14:28.785Z,55.60
2023-01-21T17:16:34.339Z,55.36
2023-01-21T17:18:38.894Z,55.53
2023-01-21T17:20:45.042Z,55.55
2023-01-21T17:22:48.354Z,55.45
2023-01-21T17:25:02.618Z,55.54
2023-01-21T17:27:09.437Z,55.43
2023-01-21T17:29:17.587Z,55.64
2023-01-21T17:31:26.326Z,55.68
2023-01-21T17:33:28.859Z,55.63
2023-01-21T17:35:31.682Z,55.58
2023-01-21T17:37:50.992Z,55.49
2023-01-21T17:39:59.006Z,55.41
2023-01-21T17:42:03.608Z,55.71
2023-01-21T17:44:14.785Z,55.43
2023-01-21T17:46:16.635Z,55.53
2023-01-21T17:48:26.270Z,55.64
2023-01-21T17:50:29.734Z,55.62
2023-01-21T17:52:31.339Z,55.65
2023-01-21T17:54:32.919Z,55.64
2023-01-21T17:56:41.241Z,55.68
2023-01-21T17:58:48.839Z,55.79
2023-01-21T18:00:50.481Z,55.88
2023-01-21T18:02:52.233Z,55.97
2023-01-21T18:04:53.955Z,56.00
2023-01-21T18:06:56.237Z,55.78
2023-01-21T18:08:58.050Z,55.75
2023-01-21T18:10:59.624Z,55.89
2023-01-21T18:13:02.622Z,55.73
2023-01-21T18:15:04.896Z,55.90
2023-01-21T18:17:06.626Z,55.54
2023-01-21T18:19:11.097Z,55.74
2023-01-21T18:21:18.611Z,55.75
2023-01-21T18:23:20.481Z,55.64
2023-01-21T18:25:24.101Z,55.52
2023-01-21T18:27:28.888Z,55.47
2023-01-21T18:29:31.830Z,55.53
2023-01-21T18:31:33.489Z,55.58
2023-01-21T18:33:35.091Z,55.55
2023-01-21T18:35:36.676Z,55.22
2023-01-21T18:37:38.203Z,55.17
2023-01-21T18:39:40.350Z,54.93
2023-01-21T18:41:42.028Z,55.10
2023-01-21T18:43:43.652Z,55.35
2023-01-21T18:45:46.742Z,55.04
2023-01-21T18:47:50.100Z,54.86
2023-01-21T18:49:51.700Z,55.21
2023-01-21T18:51:53.335Z,54.98
2023-01-21T18:53:54.892Z,54.85
2023-01-21T18:55:56.544Z,54.59
2023-01-21T18:57:58.367Z,54.52
2023-01-21T18:59:59.902Z,54.28
2023-01-21T19:02:03.050Z,54.29
2023-01-21T19:04:04.856Z,54.65
2023-01-21T19:06:12.847Z,54.50
2023-01-21T19:08:17.702Z,54.63
2023-01-21T19:10:22.123Z,54.25
2023-01-21T19:12:24.287Z,54.13
2023-01-21T19:14:25.839Z,54.87
2023-01-21T19:16:27.441Z,54.84
2023-01-21T19:18:30.422Z,54.56
2023-01-21T19:20:32.042Z,54.55
2023-01-21T19:22:33.647Z,54.63
2023-01-21T19:24:37.518Z,54.71
2023-01-21T19:26:39.181Z,54.67
2023-01-21T19:28:41.186Z,54.75
2023-01-21T19:30:42.890Z,54.57
2023-01-21T19:32:44.506Z,54.74
2023-01-21T19:34:47.641Z,55.07
2023-01-21T19:36:49.321Z,55.06
2023-01-21T19:38:54.507Z,55.11
2023-01-21T19:40:56.150Z,55.33
2023-01-21T19:42:57.740Z,55.27
2023-01-21T19:44:59.306Z,55.39
2023-01-21T19:47:01.678Z,55.57
2023-01-21T19:49:12.795Z,55.40
2023-01-21T19:51:15.820Z,55.42
2023-01-21T19:53:19.231Z,55.38
2023-01-21T19:55:22.863Z,55.38
2023-01-21T19:57:24.757Z,55.64
2023-01-21T19:59:26.340Z,55.64
2023-01-21T20:01:28.043Z,55.26
2023-01-21T20:03:30.574Z,55.43
2023-01-21T20:05:32.909Z,55.73
2023-01-21T20:07:36.216Z,55.68
2023-01-21T20:09:37.934Z,55.66
2023-01-21T20:11:39.508Z,55.53
2023-01-21T20:13:41.016Z,55.55
2023-01-21T20:15:44.473Z,55.50
2023-01-21T20:17:48.764Z,55.93
2023-01-21T20:19:50.403Z,55.70
2023-01-21T20:22:02.072Z,55.80
2023-01-21T20:24:06.457Z,55.62
2023-01-21T20:26:13.839Z,55.70
2023-01-21T20:28:20.212Z,55.75
2023-01-21T20:30:23.650Z,55.70
2023-01-21T20:32:25.326Z,55.58
2023-01-21T20:34:26.932Z,55.39
2023-01-21T20:36:36.000Z,55.58
2023-01-21T20:38:38.200Z,55.65
2023-01-21T20:40:41.349Z,55.47
2023-01-21T20:42:43.113Z,55.27
2023-01-21T20:44:44.644Z,55.67
2023-01-21T20:46:46.424Z,55.90
2023-01-21T20:48:48.496Z,55.81
2023-01-21T20:50:50.074Z,55.49
2023-01-21T20:52:52.888Z,55.38
2023-01-21T20:54:54.471Z,55.70
2023-01-21T20:56:57.486Z,55.71
2023-01-21T20:58:59.333Z,55.28
2023-01-21T21:01:00.990Z,55.49
2023-01-21T21:03:02.953Z,55.52
2023-01-21T21:05:05.170Z,55.65
2023-01-21T21:07:11.149Z,55.71
2023-01-21T21:09:12.700Z,55.88
2023-01-21T21:11:15.040Z,55.54
2023-01-21T21:13:18.337Z,55.75
2023-01-21T21:15:20.278Z,55.95
2023-01-21T21:17:22.039Z,55.82
2023-01-21T21:19:24.014Z,55.72
2023-01-21T21:21:25.723Z,55.53
2023-01-21T21:23:27.323Z,55.61
2023-01-21T21:25:30.931Z,56.05
2023-01-21T21:27:32.511Z,55.62
2023-01-21T21:29:35.399Z,56.41
2023-01-21T21:31:37.083Z,55.77
2023-01-21T21:33:38.802Z,55.72
2023-01-21T21:35:40.826Z,56.17
2023-01-21T21:37:42.368Z,56.43
2023-01-21T21:39:45.708Z,56.49
2023-01-21T21:41:47.320Z,56.79
2023-01-21T21:43:48.944Z,57.06
2023-01-21T21:45:51.837Z,57.19
2023-01-21T21:47:53.373Z,57.61
2023-01-21T21:49:56.679Z,57.30
2023-01-21T21:51:58.266Z,57.42
2023-01-21T21:53:59.810Z,57.35
2023-01-21T21:56:02.960Z,57.31
2023-01-21T21:58:04.566Z,57.27
2023-01-21T22:00:07.895Z,57.47
2023-01-21T22:02:13.555Z,57.51
2023-01-21T22:04:15.138Z,57.69
2023-01-21T22:06:18.078Z,57.46
2023-01-21T22:08:19.891Z,57.65
2023-01-21T22:10:21.487Z,57.77
2023-01-21T22:12:23.031Z,57.96
2023-01-21T22:14:24.556Z,57.87
2023-01-21T22:16:28.152Z,58.05
2023-01-21T22:18:31.696Z,58.27
2023-01-21T22:20:33.250Z,58.29
2023-01-21T22:22:34.798Z,58.23
2023-01-21T22:24:36.316Z,58.54
2023-01-21T22:26:38.101Z,58.46
2023-01-21T22:28:40.868Z,58.29
2023-01-21T22:30:42.510Z,58.24
2023-01-21T22:32:44.146Z,58.46
2023-01-21T22:34:47.046Z,58.49
2023-01-21T22:36:48.669Z,58.18
2023-01-21T22:38:51.461Z,58.33
2023-01-21T22:40:53.401Z,58.38
2023-01-21T22:42:55.017Z,58.39
2023-01-21T22:44:56.524Z,58.45
2023-01-21T22:46:58.098Z,58.34
2023-01-21T22:48:59.999Z,58.53
2023-01-21T22:51:03.124Z,58.34
2023-01-21T22:53:04.755Z,58.71
2023-01-21T22:55:07.239Z,58.74
2023-01-21T22:57:08.751Z,58.77
2023-01-21T22:59:10.320Z,58.73
2023-01-21T23:01:21.900Z,58.59
2023-01-21T23:03:24.602Z,58.41
2023-01-21T23:05:28.070Z,58.52
2023-01-21T23:07:31.074Z,58.45
2023-01-21T23:09:32.642Z,58.51
2023-01-21T23:11:34.174Z,58.48
2023-01-21T23:13:35.818Z,58.29
2023-01-21T23:15:41.922Z,58.18
2023-01-21T23:17:43.470Z,58.31
2023-01-21T23:19:45.065Z,58.31
2023-01-21T23:21:46.625Z,58.27
2023-01-21T23:23:55.072Z,58.33
2023-01-21T23:25:56.635Z,58.00
2023-01-21T23:27:58.213Z,58.12
2023-01-21T23:29:59.766Z,57.69
2023-01-21T23:32:01.495Z,58.17
2023-01-21T23:34:03.216Z,58.14
2023-01-21T23:36:05.436Z,57.88
2023-01-21T23:38:06.976Z,57.77
2023-01-21T23:40:11.060Z,57.99
2023-01-21T23:42:14.771Z,58.02
2023-01-21T23:44:16.287Z,58.18
2023-01-21T23:46:18.509Z,58.26
2023-01-21T23:48:20.220Z,58.23
2023-01-21T23:50:22.030Z,58.44
2023-01-21T23:52:23.669Z,58.24
2023-01-21T23:54:25.169Z,58.53
2023-01-21T23:56:28.151Z,58.51
2023-01-21T23:58:29.892Z,58.48
